Chalfont Saint Giles, United Kingdom

7:38 AM BST on October 01, 2014 (GMT +0100)
IBUCKING43 | Change Station
CLOSE
Current Station
Personal Weather Station
Location: Iver, BUCKINGHAMSHIRE
Elevation: 102 ft
Nearby Weather Stations

Elev 102 ft 51.51 °N, 0.54 °W | Updated 8 minutes ago

Light Rain
Light Rain Drizzle
61.0 °F
Feels Like 61.0 °F
N
0.7
Wind Variable Wind from South
Gusts 2.2 mph

Today
High -- | Low -- °F
--% Chance of Precip.
Yesterday
High -- | Low -- °F
Precip. -- in
7:02 AM 6:40 PM
Waxing Crescent, 44% visible
Pressure 30.21 in
Visibility 5.0 miles
Clouds Few 500 ft
Mostly Cloudy 1200 ft
Dew Point 60 °F
Humidity 98%
Rainfall 0.00 in
Snow Depth Not available.
UV 0 out of 12
Pollen Not available.
Air Quality Not available.
Flu Activity Not available.
METAR EGLL 010620Z 24007KT 8000 3500SE -RADZ FEW005 BKN012 17/16 Q1023 RERA REDZ BECMG 9999 NSW SCT020

More Conditions Fewer Conditions

Pressure 30.21 in
Visibility 5.0 miles
Clouds Few 500 ft
Mostly Cloudy 1200 ft
Dew Point 60 °F
Humidity 98%
Rainfall 0.00 in
Snow Depth Not available.
UV 0 out of 12
Pollen Not available.
Air Quality Not available.
Flu Activity Not available.
METAR EGLL 010620Z 24007KT 8000 3500SE -RADZ FEW005 BKN012 17/16 Q1023 RERA REDZ BECMG 9999 NSW SCT020

More Conditions Fewer Conditions

10-Day Weather Forecast

Almanac

Astronomy

Oct. 01, 2014 Rise Set
Actual Time 7:02 AM BST 6:40 PM BST
Civil Twilight 6:29 AM BST 7:13 PM BST
Nautical Twilight 5:50 AM BST 7:52 PM BST
Astronomical Twilight 5:10 AM BST 8:32 PM BST
Moon 2:22 PM BST 11:26 PM BST
Length of Visible Light 12h 44m
Length of Day
11h 37m
Tomorrow will be 3m 56s shorter.
Waxing Crescent, 44% of the Moon is Illuminated
Today
Waxing Crescent
Oct 1
First Quarter
Oct 8
Full
Oct 15
Last Quarter
Oct 23
New

Yesterday's Extremes

Country Highs Country Lows

Community

WunderPhotos

Upload Photos

1,757,886 photos uploaded!

Nearby

Snow Depth

Not available.

Earthquake Activity

City Distance Mag. Time & Date
No recent earthquake activity has been reported nearby.
Minimum magnitude displayed is 2.5.

Coastal Water Temperatures

Place Temperature
No Stations Reporting

Nearby Weather Stations